createdAt,value
2018-05-01T00:01:26.624Z,77.80
2018-05-01T00:03:55.500Z,77.50
2018-05-01T00:06:23.655Z,77.50
2018-05-01T00:08:51.779Z,77.70
2018-05-01T00:11:20.663Z,77.60
2018-05-01T00:13:49.539Z,77.60
2018-05-01T00:16:17.740Z,77.60
2018-05-01T00:18:45.852Z,77.80
2018-05-01T00:21:13.999Z,77.80
2018-05-01T00:23:42.108Z,78.00
2018-05-01T00:26:10.225Z,77.90
2018-05-01T00:28:39.130Z,77.90
2018-05-01T00:31:07.256Z,77.90
2018-05-01T00:33:35.383Z,77.90
2018-05-01T00:36:03.504Z,77.80
2018-05-01T00:38:31.621Z,77.80
2018-05-01T00:40:59.743Z,77.90
2018-05-01T00:43:27.879Z,78.00
2018-05-01T00:45:56.003Z,78.10
2018-05-01T00:48:24.100Z,78.10
2018-05-01T00:50:52.237Z,78.10
2018-05-01T00:53:20.379Z,77.70
2018-05-01T00:55:48.501Z,78.10
2018-05-01T00:58:17.377Z,78.30
2018-05-01T01:00:45.505Z,77.90
2018-05-01T01:03:13.659Z,78.60
2018-05-01T01:05:41.773Z,78.00
2018-05-01T01:08:09.912Z,78.20
2018-05-01T01:10:38.020Z,78.00
2018-05-01T01:13:06.235Z,78.00
2018-05-01T01:15:34.409Z,77.80
2018-05-01T01:18:02.523Z,77.50
2018-05-01T01:20:30.657Z,77.40
2018-05-01T01:22:58.788Z,77.40
2018-05-01T01:25:26.907Z,77.60
2018-05-01T01:27:55.017Z,77.30
2018-05-01T01:30:23.152Z,77.50
2018-05-01T01:32:53.123Z,77.40
2018-05-01T01:35:20.744Z,77.30
2018-05-01T01:37:48.370Z,77.60
2018-05-01T01:40:16.767Z,77.60
2018-05-01T01:42:44.399Z,77.60
2018-05-01T01:45:12.795Z,77.80
2018-05-01T01:47:41.284Z,77.80
2018-05-01T01:50:08.917Z,77.80
2018-05-01T01:52:37.322Z,77.90
2018-05-01T01:55:05.153Z,77.90
2018-05-01T01:57:33.471Z,77.80
2018-05-01T02:00:01.157Z,77.80
2018-05-01T02:02:28.787Z,77.80
2018-05-01T02:04:56.411Z,78.00
2018-05-01T02:07:24.039Z,77.80
2018-05-01T02:09:51.684Z,78.00
2018-05-01T02:12:19.319Z,77.70
2018-05-01T02:14:48.100Z,77.60
2018-05-01T02:17:15.715Z,77.60
2018-05-01T02:19:43.338Z,77.70
2018-05-01T02:22:10.993Z,77.80
2018-05-01T02:24:39.482Z,77.90
2018-05-01T02:27:07.099Z,77.90
2018-05-01T02:29:36.242Z,77.60
2018-05-01T02:32:03.901Z,77.60
2018-05-01T02:34:31.542Z,77.70
2018-05-01T02:36:59.927Z,77.80
2018-05-01T02:39:28.429Z,77.60
2018-05-01T02:41:56.063Z,77.70
2018-05-01T02:44:24.453Z,77.60
2018-05-01T02:46:52.115Z,77.60
2018-05-01T02:49:19.750Z,77.40
2018-05-01T02:51:48.153Z,77.50
2018-05-01T02:54:15.813Z,77.40
2018-05-01T02:56:44.179Z,77.30
2018-05-01T02:59:12.684Z,77.40
2018-05-01T03:01:40.313Z,77.40
2018-05-01T03:04:08.714Z,77.40
2018-05-01T03:06:37.116Z,77.30
2018-05-01T03:09:04.771Z,77.30
2018-05-01T03:11:32.426Z,77.30
2018-05-01T03:14:00.824Z,77.10
2018-05-01T03:16:28.448Z,77.10
2018-05-01T03:18:56.944Z,77.20
2018-05-01T03:21:24.582Z,77.30
2018-05-01T03:23:53.084Z,77.30
2018-05-01T03:26:20.744Z,77.20
2018-05-01T03:28:48.370Z,77.00
2018-05-01T03:31:16.006Z,76.90
2018-05-01T03:33:43.628Z,77.00
2018-05-01T03:36:11.256Z,77.00
2018-05-01T03:38:38.879Z,77.00
2018-05-01T03:41:06.608Z,77.70
2018-05-01T03:43:34.244Z,77.10
2018-05-01T03:46:01.879Z,76.90
2018-05-01T03:48:29.508Z,77.50
2018-05-01T03:50:57.136Z,77.20
2018-05-01T03:53:25.551Z,77.30
2018-05-01T03:55:53.184Z,77.20
2018-05-01T03:58:21.564Z,77.00
2018-05-01T04:00:49.210Z,77.00
2018-05-01T04:03:17.627Z,77.50
2018-05-01T04:05:45.779Z,76.80
2018-05-01T04:08:14.292Z,77.00
2018-05-01T04:10:41.931Z,76.90
2018-05-01T04:13:09.582Z,76.80
2018-05-01T04:15:37.981Z,76.90
2018-05-01T04:18:05.611Z,76.90
2018-05-01T04:20:34.003Z,77.00
2018-05-01T04:23:01.635Z,77.00
2018-05-01T04:25:29.283Z,76.70
2018-05-01T04:27:56.907Z,77.10
2018-05-01T04:30:24.543Z,77.10
2018-05-01T04:32:52.182Z,76.90
2018-05-01T04:35:20.607Z,77.00
2018-05-01T04:37:48.231Z,77.00
2018-05-01T04:40:16.643Z,76.90
2018-05-01T04:42:44.294Z,76.90
2018-05-01T04:45:11.935Z,76.80
2018-05-01T04:47:40.319Z,76.70
2018-05-01T04:50:08.739Z,76.90
2018-05-01T04:52:36.365Z,77.60
2018-05-01T04:55:04.015Z,76.40
2018-05-01T04:57:32.407Z,76.60
2018-05-01T05:00:00.040Z,76.60
2018-05-01T05:02:28.463Z,77.20
2018-05-01T05:04:56.105Z,76.50
2018-05-01T05:07:23.733Z,76.60
2018-05-01T05:09:51.367Z,76.60
2018-05-01T05:12:19.049Z,76.30
2018-05-01T05:14:46.692Z,76.20
2018-05-01T05:17:14.312Z,76.50
2018-05-01T05:19:41.948Z,75.80
2018-05-01T05:22:09.589Z,76.30
2018-05-01T05:24:37.225Z,76.50
2018-05-01T05:27:04.888Z,76.10
2018-05-01T05:29:32.512Z,76.60
2018-05-01T05:32:00.137Z,76.40
2018-05-01T05:34:27.892Z,76.60
2018-05-01T05:36:55.516Z,76.30
2018-05-01T05:39:23.144Z,76.40
2018-05-01T05:41:51.663Z,76.40
2018-05-01T05:44:19.300Z,76.40
2018-05-01T05:46:46.987Z,76.50
2018-05-01T05:49:14.715Z,76.60
2018-05-01T05:51:43.104Z,76.50
2018-05-01T05:54:10.740Z,76.50
2018-05-01T05:56:38.383Z,76.40
2018-05-01T05:59:06.008Z,76.30
2018-05-01T06:01:33.648Z,76.50
2018-05-01T06:04:01.318Z,76.80
2018-05-01T06:06:28.972Z,77.10
2018-05-01T06:08:56.603Z,76.30
2018-05-01T06:11:24.997Z,77.90
2018-05-01T06:13:53.396Z,77.20
2018-05-01T06:16:21.036Z,77.20
2018-05-01T06:18:49.432Z,77.30
2018-05-01T06:21:17.056Z,77.30
2018-05-01T06:23:44.770Z,77.20
2018-05-01T06:26:12.396Z,77.20
2018-05-01T06:28:40.786Z,77.10
2018-05-01T06:31:09.263Z,76.50
2018-05-01T06:33:36.824Z,76.60
2018-05-01T06:36:05.236Z,76.00
2018-05-01T06:38:32.869Z,76.10
2018-05-01T06:41:00.492Z,76.80
2018-05-01T06:43:29.641Z,76.80
2018-05-01T06:45:57.282Z,76.80
2018-05-01T06:48:25.775Z,76.60
2018-05-01T06:50:53.434Z,76.50
2018-05-01T06:53:21.840Z,77.00
2018-05-01T06:55:49.477Z,77.00
2018-05-01T06:58:17.115Z,77.20
2018-05-01T07:00:45.511Z,77.60
2018-05-01T07:03:13.161Z,77.60
2018-05-01T07:05:41.665Z,77.00
2018-05-01T07:08:09.297Z,77.00
2018-05-01T07:10:37.710Z,76.50
2018-05-01T07:13:05.375Z,76.50
2018-05-01T07:15:33.007Z,77.10
2018-05-01T07:18:01.419Z,76.20
2018-05-01T07:20:29.071Z,76.10
2018-05-01T07:22:56.691Z,76.60
2018-05-01T07:25:24.322Z,76.00
2018-05-01T07:27:51.948Z,75.40
2018-05-01T07:30:19.595Z,73.70
2018-05-01T07:32:47.228Z,73.00
2018-05-01T07:35:15.660Z,72.20
2018-05-01T07:37:43.320Z,72.20
2018-05-01T07:40:10.950Z,73.00
2018-05-01T07:42:39.377Z,71.70
2018-05-01T07:45:07.004Z,71.60
2018-05-01T07:47:34.644Z,72.80
2018-05-01T07:50:03.054Z,73.80
2018-05-01T07:52:30.717Z,73.70
2018-05-01T07:54:58.340Z,74.00
2018-05-01T07:57:26.760Z,74.10
2018-05-01T07:59:54.408Z,74.10
2018-05-01T08:02:22.039Z,73.20
2018-05-01T08:04:50.458Z,73.20
2018-05-01T08:07:18.207Z,73.10
2018-05-01T08:09:45.872Z,73.00
2018-05-01T08:12:13.504Z,73.40
2018-05-01T08:14:41.931Z,73.70
2018-05-01T08:17:09.574Z,73.70
2018-05-01T08:19:37.245Z,72.90
2018-05-01T08:22:04.876Z,72.00
2018-05-01T08:24:34.152Z,71.80
2018-05-01T08:27:03.316Z,71.30
2018-05-01T08:29:30.948Z,71.30
2018-05-01T08:31:58.582Z,69.60
2018-05-01T08:34:27.112Z,70.90
2018-05-01T08:36:54.766Z,70.70
2018-05-01T08:39:23.244Z,69.20
2018-05-01T08:41:51.716Z,69.50
2018-05-01T08:44:19.421Z,71.00
2018-05-01T08:46:47.166Z,69.10
2018-05-01T08:49:14.796Z,70.10
2018-05-01T08:51:42.608Z,67.90
2018-05-01T08:54:10.439Z,65.00
2018-05-01T08:56:38.092Z,66.80
2018-05-01T08:59:05.724Z,68.60
2018-05-01T09:01:34.151Z,69.30
2018-05-01T09:04:01.788Z,69.40
2018-05-01T09:06:29.439Z,67.00
2018-05-01T09:08:57.840Z,64.90
2018-05-01T09:11:25.483Z,65.10
2018-05-01T09:13:53.959Z,63.20
2018-05-01T09:16:22.374Z,61.70
2018-05-01T09:18:50.786Z,60.30
2018-05-01T09:21:18.419Z,60.50
2018-05-01T09:23:46.633Z,60.00
2018-05-01T09:26:14.287Z,60.90
2018-05-01T09:28:42.815Z,62.10
2018-05-01T09:31:10.948Z,62.20
2018-05-01T09:33:38.580Z,61.80
2018-05-01T09:36:06.218Z,59.10
2018-05-01T09:38:34.305Z,59.80
2018-05-01T09:41:02.043Z,60.00
2018-05-01T09:43:29.883Z,59.60
2018-05-01T09:45:59.349Z,60.70
2018-05-01T09:48:27.178Z,60.70
2018-05-01T09:50:54.815Z,59.60
2018-05-01T09:53:24.188Z,58.00
2018-05-01T09:55:52.295Z,58.00
2018-05-01T09:58:20.458Z,58.90
2018-05-01T10:00:49.395Z,58.70
2018-05-01T10:03:17.499Z,58.70
2018-05-01T10:05:45.645Z,59.00
2018-05-01T10:08:13.783Z,58.90
2018-05-01T10:10:41.925Z,57.80
2018-05-01T10:13:10.051Z,57.00
2018-05-01T10:15:38.271Z,56.60
2018-05-01T10:18:07.951Z,56.20
2018-05-01T10:20:36.106Z,56.30
2018-05-01T10:23:04.239Z,59.70
2018-05-01T10:25:33.129Z,60.10
2018-05-01T10:28:01.263Z,60.20
2018-05-01T10:30:29.527Z,61.10
2018-05-01T10:32:57.637Z,55.80
2018-05-01T10:35:25.782Z,56.20
2018-05-01T10:37:53.907Z,55.20
2018-05-01T10:40:22.835Z,55.80
2018-05-01T10:42:50.953Z,55.70
2018-05-01T10:45:20.596Z,53.40
2018-05-01T10:47:48.738Z,53.50
2018-05-01T10:50:16.855Z,55.30
2018-05-01T10:52:44.980Z,53.70
2018-05-01T10:55:13.119Z,55.40
2018-05-01T10:57:41.254Z,55.20
2018-05-01T11:00:09.431Z,54.20
2018-05-01T11:02:37.545Z,55.90
2018-05-01T11:05:05.683Z,51.30
2018-05-01T11:07:33.809Z,53.50
2018-05-01T11:10:01.980Z,52.90
2018-05-01T11:12:30.157Z,52.10
2018-05-01T11:14:58.269Z,53.00
2018-05-01T11:17:26.447Z,53.90
2018-05-01T11:19:55.310Z,53.40
2018-05-01T11:22:24.208Z,55.40
2018-05-01T11:24:53.117Z,52.70
2018-05-01T11:27:21.289Z,52.60
2018-05-01T11:29:49.412Z,52.30
2018-05-01T11:32:17.540Z,52.00
2018-05-01T11:34:45.648Z,53.60
2018-05-01T11:37:13.884Z,53.60
2018-05-01T11:39:42.012Z,54.10
2018-05-01T11:42:10.147Z,52.30
2018-05-01T11:44:38.247Z,53.20
2018-05-01T11:47:06.486Z,51.60
2018-05-01T11:49:34.628Z,55.30
2018-05-01T11:52:03.524Z,55.70
2018-05-01T11:54:32.408Z,56.90
2018-05-01T11:57:01.319Z,54.40
2018-05-01T11:59:29.456Z,54.40
2018-05-01T12:01:57.660Z,55.00
2018-05-01T12:04:25.864Z,54.90
2018-05-01T12:06:54.000Z,53.30
2018-05-01T12:09:22.896Z,56.70
2018-05-01T12:11:51.024Z,56.20
2018-05-01T12:14:19.143Z,52.00
2018-05-01T12:16:47.282Z,55.40
2018-05-01T12:19:16.911Z,54.30
2018-05-01T12:21:45.932Z,54.20
2018-05-01T12:24:14.113Z,54.20
2018-05-01T12:26:42.215Z,52.10
2018-05-01T12:29:10.440Z,50.30
2018-05-01T12:31:38.563Z,50.70
2018-05-01T12:34:06.792Z,51.10
2018-05-01T12:36:34.971Z,50.90
2018-05-01T12:39:03.847Z,53.50
2018-05-01T12:41:31.967Z,53.70
2018-05-01T12:44:00.125Z,51.90
2018-05-01T12:46:28.256Z,52.40
2018-05-01T12:48:57.182Z,52.80
2018-05-01T12:51:25.287Z,52.90
2018-05-01T12:53:55.012Z,53.50
2018-05-01T12:56:23.052Z,53.40
2018-05-01T12:58:51.215Z,54.90
2018-05-01T13:01:19.343Z,53.00
2018-05-01T13:03:48.259Z,51.90
2018-05-01T13:06:16.381Z,51.90
2018-05-01T13:08:44.599Z,51.90
2018-05-01T13:11:12.761Z,53.30
2018-05-01T13:13:41.665Z,50.00
2018-05-01T13:16:10.570Z,49.90
2018-05-01T13:18:38.701Z,49.80
2018-05-01T13:21:06.911Z,48.70
2018-05-01T13:23:35.023Z,51.90
2018-05-01T13:26:03.152Z,48.00
2018-05-01T13:28:31.337Z,49.30
2018-05-01T13:30:59.473Z,49.80
2018-05-01T13:33:28.359Z,49.50
2018-05-01T13:35:57.257Z,51.10
2018-05-01T13:38:26.160Z,49.50
2018-05-01T13:40:54.311Z,49.50
2018-05-01T13:43:23.193Z,49.70
2018-05-01T13:45:51.338Z,49.30
2018-05-01T13:48:19.498Z,50.90
2018-05-01T13:50:47.635Z,50.80
2018-05-01T13:53:16.529Z,49.40
2018-05-01T13:55:45.421Z,49.30
2018-05-01T13:58:14.311Z,46.30
2018-05-01T14:00:42.572Z,46.30
2018-05-01T14:03:10.645Z,48.20
2018-05-01T14:05:39.533Z,47.40
2018-05-01T14:08:08.432Z,47.50
2018-05-01T14:10:37.319Z,46.80
2018-05-01T14:13:06.250Z,47.90
2018-05-01T14:15:34.381Z,48.00
2018-05-01T14:18:03.320Z,48.90
2018-05-01T14:20:31.447Z,49.00
2018-05-01T14:23:00.369Z,48.00
2018-05-01T14:25:28.609Z,47.80
2018-05-01T14:27:56.622Z,49.50
2018-05-01T14:30:24.858Z,48.00
2018-05-01T14:32:52.967Z,49.30
2018-05-01T14:35:21.083Z,51.40
2018-05-01T14:37:49.209Z,50.70
2018-05-01T14:40:17.355Z,49.60
2018-05-01T14:42:46.260Z,49.60
2018-05-01T14:45:14.396Z,49.60
2018-05-01T14:47:42.523Z,50.60
2018-05-01T14:50:10.681Z,51.50
2018-05-01T14:52:38.793Z,52.70
2018-05-01T14:55:06.943Z,50.90
2018-05-01T14:57:35.061Z,49.70
2018-05-01T15:00:03.209Z,49.60
2018-05-01T15:02:34.305Z,50.10
2018-05-01T15:05:03.448Z,47.80
2018-05-01T15:07:31.580Z,47.70
2018-05-01T15:09:59.765Z,47.30
2018-05-01T15:12:27.935Z,47.60
2018-05-01T15:14:56.118Z,46.60
2018-05-01T15:17:24.316Z,43.50
2018-05-01T15:19:52.433Z,47.30
2018-05-01T15:22:21.439Z,48.20
2018-05-01T15:24:50.154Z,48.10
2018-05-01T15:27:18.269Z,48.30
2018-05-01T15:29:46.418Z,50.20
2018-05-01T15:32:14.661Z,50.10
2018-05-01T15:34:42.781Z,50.00
2018-05-01T15:37:12.435Z,49.20
2018-05-01T15:39:40.608Z,49.10
2018-05-01T15:42:08.803Z,50.40
2018-05-01T15:44:36.964Z,48.20
2018-05-01T15:47:05.092Z,46.80
2018-05-01T15:49:33.252Z,49.20
2018-05-01T15:52:01.385Z,48.60
2018-05-01T15:54:29.514Z,48.70
2018-05-01T15:56:57.652Z,51.50
2018-05-01T15:59:25.780Z,51.30
2018-05-01T16:01:54.689Z,51.20
2018-05-01T16:04:22.810Z,51.20
2018-05-01T16:06:52.482Z,47.90
2018-05-01T16:09:20.636Z,47.90
2018-05-01T16:11:48.796Z,50.00
2018-05-01T16:14:17.741Z,50.10
2018-05-01T16:16:46.566Z,50.90
2018-05-01T16:19:15.488Z,51.20
2018-05-01T16:21:43.627Z,51.30
2018-05-01T16:24:11.747Z,50.00
2018-05-01T16:26:39.861Z,49.40
2018-05-01T16:29:08.013Z,50.80
2018-05-01T16:31:36.253Z,49.50
2018-05-01T16:34:04.454Z,50.00
2018-05-01T16:36:32.568Z,51.80
2018-05-01T16:39:00.776Z,51.10
2018-05-01T16:41:28.913Z,50.50
2018-05-01T16:43:57.044Z,48.30
2018-05-01T16:46:25.174Z,50.50
2018-05-01T16:48:54.070Z,52.10
2018-05-01T16:51:22.990Z,48.90
2018-05-01T16:53:51.110Z,48.90
2018-05-01T16:56:19.244Z,49.60
2018-05-01T16:58:47.411Z,51.70
2018-05-01T17:01:15.528Z,52.50
2018-05-01T17:03:43.662Z,51.20
2018-05-01T17:06:11.810Z,50.40
2018-05-01T17:08:39.932Z,48.60
2018-05-01T17:11:08.053Z,49.70
2018-05-01T17:13:36.202Z,50.20
2018-05-01T17:16:04.407Z,50.30
2018-05-01T17:18:32.564Z,48.80
2018-05-01T17:21:01.465Z,51.00
2018-05-01T17:23:29.600Z,51.10
2018-05-01T17:25:59.233Z,50.10
2018-05-01T17:28:28.140Z,50.70
2018-05-01T17:30:56.259Z,50.80
2018-05-01T17:33:24.482Z,49.80
2018-05-01T17:35:53.362Z,50.70
2018-05-01T17:38:22.251Z,51.40
2018-05-01T17:40:51.181Z,50.30
2018-05-01T17:43:19.321Z,50.30
2018-05-01T17:45:48.227Z,49.00
2018-05-01T17:48:16.345Z,49.00
2018-05-01T17:50:44.508Z,51.10
2018-05-01T17:53:12.653Z,51.90
2018-05-01T17:55:40.785Z,50.60
2018-05-01T17:58:08.909Z,49.30
2018-05-01T18:00:37.161Z,50.40
2018-05-01T18:03:05.321Z,50.50
2018-05-01T18:05:34.227Z,50.60
2018-05-01T18:08:02.386Z,50.60
2018-05-01T18:10:31.317Z,51.80
2018-05-01T18:12:59.443Z,51.80
2018-05-01T18:15:28.371Z,53.30
2018-05-01T18:17:56.535Z,53.30
2018-05-01T18:20:24.645Z,52.70
2018-05-01T18:22:52.794Z,52.80
2018-05-01T18:25:20.933Z,52.70
2018-05-01T18:27:49.825Z,53.50
2018-05-01T18:30:18.747Z,53.20
2018-05-01T18:32:46.885Z,53.30
2018-05-01T18:35:15.879Z,52.80
2018-05-01T18:37:44.784Z,53.50
2018-05-01T18:40:12.951Z,53.50
2018-05-01T18:42:41.254Z,53.30
2018-05-01T18:45:09.365Z,53.80
2018-05-01T18:47:38.249Z,53.60
2018-05-01T18:50:06.376Z,53.60
2018-05-01T18:52:34.528Z,53.40
2018-05-01T18:55:03.429Z,54.00
2018-05-01T18:57:32.328Z,53.90
2018-05-01T19:00:00.481Z,53.90
2018-05-01T19:02:29.380Z,53.60
2018-05-01T19:04:57.508Z,53.70
2018-05-01T19:07:25.692Z,53.40
2018-05-01T19:09:55.329Z,53.50
2018-05-01T19:12:24.216Z,54.40
2018-05-01T19:14:53.124Z,54.50
2018-05-01T19:17:21.252Z,54.50
2018-05-01T19:19:50.206Z,54.30
2018-05-01T19:22:18.328Z,54.30
2018-05-01T19:24:46.476Z,55.00
2018-05-01T19:27:14.589Z,54.30
2018-05-01T19:29:43.482Z,54.90
2018-05-01T19:32:12.418Z,54.70
2018-05-01T19:34:40.560Z,54.70
2018-05-01T19:37:08.740Z,54.30
2018-05-01T19:39:36.916Z,54.60
2018-05-01T19:42:05.204Z,54.80
2018-05-01T19:44:33.338Z,55.00
2018-05-01T19:47:02.254Z,55.40
2018-05-01T19:49:30.452Z,55.40
2018-05-01T19:51:58.937Z,55.10
2018-05-01T19:54:27.084Z,55.10
2018-05-01T19:56:55.259Z,55.10
2018-05-01T19:59:23.340Z,55.50
2018-05-01T20:01:51.484Z,55.70
2018-05-01T20:04:20.375Z,55.10
2018-05-01T20:06:49.394Z,55.10
2018-05-01T20:09:17.519Z,55.10
2018-05-01T20:11:46.448Z,56.40
2018-05-01T20:14:14.684Z,55.80
2018-05-01T20:16:42.752Z,55.70
2018-05-01T20:19:10.912Z,55.60
2018-05-01T20:21:39.048Z,55.30
2018-05-01T20:24:07.216Z,56.10
2018-05-01T20:26:35.400Z,56.10
2018-05-01T20:29:03.526Z,56.30
2018-05-01T20:31:32.432Z,56.70
2018-05-01T20:34:01.348Z,56.50
2018-05-01T20:36:29.483Z,56.40
2018-05-01T20:38:58.375Z,56.30
2018-05-01T20:41:27.410Z,56.50
2018-05-01T20:43:55.577Z,56.50
2018-05-01T20:46:23.707Z,56.10
2018-05-01T20:48:51.831Z,56.20
2018-05-01T20:51:19.967Z,56.40
2018-05-01T20:53:48.899Z,56.10
2018-05-01T20:56:17.042Z,56.10
2018-05-01T20:58:45.248Z,56.10
2018-05-01T21:01:13.385Z,56.20
2018-05-01T21:03:42.405Z,56.40
2018-05-01T21:06:10.561Z,56.40
2018-05-01T21:08:38.693Z,56.30
2018-05-01T21:11:06.817Z,56.20
2018-05-01T21:13:34.964Z,56.10
2018-05-01T21:16:03.870Z,55.90
2018-05-01T21:18:32.133Z,55.90
2018-05-01T21:21:01.021Z,56.10
2018-05-01T21:23:29.929Z,56.20
2018-05-01T21:25:58.089Z,56.30
2018-05-01T21:28:26.977Z,56.20
2018-05-01T21:30:55.873Z,56.30
2018-05-01T21:33:24.784Z,56.10
2018-05-01T21:35:52.913Z,56.10
2018-05-01T21:38:22.557Z,56.20
2018-05-01T21:40:50.760Z,56.20
2018-05-01T21:43:18.889Z,56.20
2018-05-01T21:45:47.027Z,56.00
2018-05-01T21:48:15.165Z,56.20
2018-05-01T21:50:43.283Z,55.90
2018-05-01T21:53:12.231Z,56.80
2018-05-01T21:55:40.386Z,56.20
2018-05-01T21:58:08.511Z,56.40
2018-05-01T22:00:36.651Z,56.40
2018-05-01T22:03:04.809Z,56.50
2018-05-01T22:05:32.953Z,56.70
2018-05-01T22:08:01.889Z,56.80
2018-05-01T22:10:29.992Z,56.80
2018-05-01T22:12:58.129Z,56.60
2018-05-01T22:15:26.270Z,56.80
2018-05-01T22:17:55.186Z,56.80
2018-05-01T22:20:23.308Z,56.80
2018-05-01T22:22:51.440Z,56.70
2018-05-01T22:25:19.602Z,56.80
2018-05-01T22:27:47.744Z,56.80
2018-05-01T22:30:16.628Z,56.90
2018-05-01T22:32:44.832Z,56.80
2018-05-01T22:35:13.012Z,56.80
2018-05-01T22:37:41.160Z,56.80
2018-05-01T22:40:10.052Z,56.80
2018-05-01T22:42:38.944Z,56.80
2018-05-01T22:45:07.845Z,56.90
2018-05-01T22:47:36.744Z,56.90
2018-05-01T22:50:04.856Z,57.00
2018-05-01T22:52:32.984Z,57.00
2018-05-01T22:55:01.139Z,57.10
2018-05-01T22:57:30.049Z,57.80
2018-05-01T22:59:58.172Z,57.80
2018-05-01T23:02:26.314Z,57.20
2018-05-01T23:04:54.472Z,57.20
2018-05-01T23:07:22.613Z,57.30
2018-05-01T23:09:50.748Z,57.40
2018-05-01T23:12:18.873Z,57.00
2018-05-01T23:14:47.008Z,57.50
2018-05-01T23:17:15.264Z,57.50
2018-05-01T23:19:43.418Z,57.60
2018-05-01T23:22:14.150Z,57.60
2018-05-01T23:24:42.280Z,58.50
2018-05-01T23:27:11.188Z,58.60
2018-05-01T23:29:40.074Z,58.40
2018-05-01T23:32:08.987Z,58.60
2018-05-01T23:34:37.163Z,58.60
2018-05-01T23:37:05.307Z,58.60
2018-05-01T23:39:34.199Z,58.90
2018-05-01T23:42:03.081Z,59.00
2018-05-01T23:44:32.724Z,59.10
2018-05-01T23:47:00.852Z,59.10
2018-05-01T23:49:29.072Z,58.30
2018-05-01T23:51:57.227Z,58.50
2018-05-01T23:54:25.344Z,58.50
2018-05-01T23:56:53.603Z,58.50
2018-05-01T23:59:21.723Z,58.50
